Aviation Digital Data Service (ADDS)

Output produced by METARs form (2057 UTC 29 May 2017)
found at http://www.aviationweather.gov/adds/metars/
 
FDMS 291500Z 12004KT 9999 SCT030 18/07 Q1031 NOSIG